AGS weather

Augusta Regional At Bush Field
Augusta, Georgia, United States

Public forecast

Using degrees Fahrenheit for public forecast. Weather courtesy of forecast.io.

Current aviation weather report (METAR) for Augusta Regional At Bush Field

Retrieved 2019/11/21 07:35 UTC (0 seconds ago):

KAGS 210735Z AUTO 00000KT 7SM CLR 04/03 A3026 RMK AO2 T00390028

Aviation forecast (TAF) for Augusta Regional At Bush Field

Retrieved 2019/11/21 06:33 UTC (31 minutes ago):

TAF KAGS 210531Z 2106/2206 00000KT 6SM BR SCT250 TEMPO 2106/2110 1 1/2SM BR FM211400 14005KT P6SM SCT250